Hollins College, Virginia
Current Conditions -  °F | °C
As of 2:54 PM on Monday 22 Dec 2014 (Local Time) from KROA Reporting Station
Drizzle Drizzle  
Wind Chill: 36°   Ceiling: 800
Heat Index: 36°   Visibility: 2mi
Dew Point: 34°   Wind: 0mph
Humidity: 93%   Direction: NA
Pressure: 30.1"   Gusts: NA
Location:  37.3533°N, 79.9353°W
Report Text: KROA 221954Z 00000KT 2SM -DZ BR SCT004 OVC008 02/01 A3010 RMK AO2 DZB1857 SLP201 P0000 T00220011
Loading
Personal Weather Stations






























Interactive Weather Map New forecast layout! Learn more

10-Day Weather Forecast

Advertisements
Track Severe Weather on mobile